sensor_id;sensor_type;location;lat;lon;timestamp;P1;durP1;ratioP1;P2;durP2;ratioP2
78224;SDS011;67498;53.650;10.090;2023-11-21T00:39:51;7.53;;;2.25;;
78224;SDS011;67498;53.650;10.090;2023-11-21T00:47:14;9.70;;;3.07;;
78224;SDS011;67498;53.650;10.090;2023-11-21T00:58:22;12.88;;;4.25;;
78224;SDS011;67498;53.650;10.090;2023-11-21T01:26:51;5.47;;;1.73;;
78224;SDS011;67498;53.650;10.090;2023-11-21T01:29:42;14.93;;;2.93;;
78224;SDS011;67498;53.650;10.090;2023-11-21T01:32:10;5.82;;;2.47;;
78224;SDS011;67498;53.650;10.090;2023-11-21T01:35:03;7.70;;;3.20;;
78224;SDS011;67498;53.650;10.090;2023-11-21T01:37:30;6.40;;;2.90;;
78224;SDS011;67498;53.650;10.090;2023-11-21T01:40:16;7.07;;;2.03;;
78224;SDS011;67498;53.650;10.090;2023-11-21T01:42:42;6.80;;;2.72;;
78224;SDS011;67498;53.650;10.090;2023-11-21T01:45:34;13.75;;;2.70;;
78224;SDS011;67498;53.650;10.090;2023-11-21T01:48:04;6.37;;;2.10;;
78224;SDS011;67498;53.650;10.090;2023-11-21T01:50:31;7.57;;;2.15;;
78224;SDS011;67498;53.650;10.090;2023-11-21T01:52:58;8.48;;;1.90;;
78224;SDS011;67498;53.650;10.090;2023-11-21T02:01:48;7.57;;;2.53;;
78224;SDS011;67498;53.650;10.090;2023-11-21T02:04:36;4.40;;;1.42;;
78224;SDS011;67498;53.650;10.090;2023-11-21T02:07:20;5.25;;;1.80;;
78224;SDS011;67498;53.650;10.090;2023-11-21T02:09:56;5.15;;;1.50;;
78224;SDS011;67498;53.650;10.090;2023-11-21T02:12:32;4.90;;;1.70;;
78224;SDS011;67498;53.650;10.090;2023-11-21T02:14:58;5.60;;;2.20;;
78224;SDS011;67498;53.650;10.090;2023-11-21T02:17:26;3.87;;;1.37;;
78224;SDS011;67498;53.650;10.090;2023-11-21T02:20:17;2.53;;;0.80;;
78224;SDS011;67498;53.650;10.090;2023-11-21T02:26:01;6.18;;;2.10;;
78224;SDS011;67498;53.650;10.090;2023-11-21T02:28:43;7.47;;;2.15;;
78224;SDS011;67498;53.650;10.090;2023-11-21T02:31:23;3.77;;;1.60;;
78224;SDS011;67498;53.650;10.090;2023-11-21T02:36:57;4.22;;;1.25;;
78224;SDS011;67498;53.650;10.090;2023-11-21T02:39:32;3.80;;;1.27;;
78224;SDS011;67498;53.650;10.090;2023-11-21T02:42:03;4.32;;;1.77;;
78224;SDS011;67498;53.650;10.090;2023-11-21T02:44:29;7.10;;;1.63;;
78224;SDS011;67498;53.650;10.090;2023-11-21T02:46:57;7.67;;;1.90;;
78224;SDS011;67498;53.650;10.090;2023-11-21T02:52:25;6.38;;;1.98;;
78224;SDS011;67498;53.650;10.090;2023-11-21T02:54:51;5.07;;;1.93;;
78224;SDS011;67498;53.650;10.090;2023-11-21T02:57:34;6.65;;;2.00;;
78224;SDS011;67498;53.650;10.090;2023-11-21T03:00:11;3.60;;;1.60;;
78224;SDS011;67498;53.650;10.090;2023-11-21T03:05:25;4.75;;;1.40;;
78224;SDS011;67498;53.650;10.090;2023-11-21T03:08:04;8.02;;;2.15;;
78224;SDS011;67498;53.650;10.090;2023-11-21T03:10:43;6.38;;;2.25;;
78224;SDS011;67498;53.650;10.090;2023-11-21T03:13:14;5.57;;;2.13;;
78224;SDS011;67498;53.650;10.090;2023-11-21T03:16:14;5.90;;;1.83;;
78224;SDS011;67498;53.650;10.090;2023-11-21T03:18:51;6.95;;;2.35;;
78224;SDS011;67498;53.650;10.090;2023-11-21T03:24:39;11.82;;;2.85;;
78224;SDS011;67498;53.650;10.090;2023-11-21T03:27:18;6.97;;;1.60;;
78224;SDS011;67498;53.650;10.090;2023-11-21T03:33:00;6.10;;;2.05;;
78224;SDS011;67498;53.650;10.090;2023-11-21T03:35:33;6.70;;;1.88;;
78224;SDS011;67498;53.650;10.090;2023-11-21T03:38:12;6.25;;;2.53;;
78224;SDS011;67498;53.650;10.090;2023-11-21T03:40:58;7.60;;;2.37;;
78224;SDS011;67498;53.650;10.090;2023-11-21T03:43:37;5.95;;;2.08;;
78224;SDS011;67498;53.650;10.090;2023-11-21T03:46:10;8.48;;;2.80;;
78224;SDS011;67498;53.650;10.090;2023-11-21T03:48:41;6.07;;;2.80;;
78224;SDS011;67498;53.650;10.090;2023-11-21T03:51:07;6.00;;;2.15;;
78224;SDS011;67498;53.650;10.090;2023-11-21T03:53:32;8.63;;;2.83;;
78224;SDS011;67498;53.650;10.090;2023-11-21T03:56:01;5.87;;;1.97;;
78224;SDS011;67498;53.650;10.090;2023-11-21T03:58:37;6.65;;;2.47;;
78224;SDS011;67498;53.650;10.090;2023-11-21T04:01:05;6.32;;;2.40;;
78224;SDS011;67498;53.650;10.090;2023-11-21T04:03:30;6.73;;;2.83;;
78224;SDS011;67498;53.650;10.090;2023-11-21T04:05:56;5.87;;;2.60;;
78224;SDS011;67498;53.650;10.090;2023-11-21T04:08:22;6.22;;;1.90;;
78224;SDS011;67498;53.650;10.090;2023-11-21T04:10:47;7.32;;;2.10;;
78224;SDS011;67498;53.650;10.090;2023-11-21T04:13:16;5.93;;;2.17;;
78224;SDS011;67498;53.650;10.090;2023-11-21T04:15:42;8.73;;;2.07;;
78224;SDS011;67498;53.650;10.090;2023-11-21T04:18:11;5.72;;;2.05;;
78224;SDS011;67498;53.650;10.090;2023-11-21T04:20:36;12.68;;;2.88;;
78224;SDS011;67498;53.650;10.090;2023-11-21T04:23:02;6.90;;;2.20;;
78224;SDS011;67498;53.650;10.090;2023-11-21T04:25:30;8.27;;;2.15;;
78224;SDS011;67498;53.650;10.090;2023-11-21T04:27:56;14.77;;;2.30;;
78224;SDS011;67498;53.650;10.090;2023-11-21T04:30:24;8.33;;;2.20;;
78224;SDS011;67498;53.650;10.090;2023-11-21T04:32:49;5.45;;;2.25;;
78224;SDS011;67498;53.650;10.090;2023-11-21T04:35:16;9.60;;;1.73;;
78224;SDS011;67498;53.650;10.090;2023-11-21T04:37:41;5.22;;;2.22;;
78224;SDS011;67498;53.650;10.090;2023-11-21T04:40:07;8.93;;;2.63;;
78224;SDS011;67498;53.650;10.090;2023-11-21T04:42:36;12.30;;;2.60;;
78224;SDS011;67498;53.650;10.090;2023-11-21T04:45:07;6.70;;;1.90;;
78224;SDS011;67498;53.650;10.090;2023-11-21T04:47:43;7.53;;;2.25;;
78224;SDS011;67498;53.650;10.090;2023-11-21T04:50:08;6.47;;;2.27;;
78224;SDS011;67498;53.650;10.090;2023-11-21T04:52:34;4.43;;;1.50;;
78224;SDS011;67498;53.650;10.090;2023-11-21T04:55:00;7.20;;;1.70;;
78224;SDS011;67498;53.650;10.090;2023-11-21T04:57:27;7.43;;;2.72;;
78224;SDS011;67498;53.650;10.090;2023-11-21T04:59:54;6.10;;;2.10;;
78224;SDS011;67498;53.650;10.090;2023-11-21T05:02:21;4.80;;;1.70;;
78224;SDS011;67498;53.650;10.090;2023-11-21T05:04:50;6.03;;;2.27;;
78224;SDS011;67498;53.650;10.090;2023-11-21T05:07:18;7.85;;;2.25;;
78224;SDS011;67498;53.650;10.090;2023-11-21T05:09:47;7.63;;;2.60;;
78224;SDS011;67498;53.650;10.090;2023-11-21T05:12:15;4.05;;;1.95;;
78224;SDS011;67498;53.650;10.090;2023-11-21T05:14:43;6.72;;;1.90;;
78224;SDS011;67498;53.650;10.090;2023-11-21T05:17:11;5.30;;;1.97;;
78224;SDS011;67498;53.650;10.090;2023-11-21T05:19:36;5.82;;;2.03;;
78224;SDS011;67498;53.650;10.090;2023-11-21T05:22:03;5.85;;;1.98;;
78224;SDS011;67498;53.650;10.090;2023-11-21T05:24:31;7.90;;;2.83;;
78224;SDS011;67498;53.650;10.090;2023-11-21T05:27:00;6.43;;;2.20;;
78224;SDS011;67498;53.650;10.090;2023-11-21T05:29:25;6.23;;;2.37;;
78224;SDS011;67498;53.650;10.090;2023-11-21T05:31:50;7.83;;;2.00;;
78224;SDS011;67498;53.650;10.090;2023-11-21T05:34:16;6.78;;;2.33;;
78224;SDS011;67498;53.650;10.090;2023-11-21T05:36:45;5.67;;;2.20;;
78224;SDS011;67498;53.650;10.090;2023-11-21T05:39:11;7.78;;;2.53;;
78224;SDS011;67498;53.650;10.090;2023-11-21T05:41:37;7.30;;;3.15;;
78224;SDS011;67498;53.650;10.090;2023-11-21T05:44:02;6.72;;;2.65;;
78224;SDS011;67498;53.650;10.090;2023-11-21T05:46:30;6.93;;;2.80;;
78224;SDS011;67498;53.650;10.090;2023-11-21T05:48:56;6.90;;;2.63;;
78224;SDS011;67498;53.650;10.090;2023-11-21T05:51:21;7.33;;;2.67;;
78224;SDS011;67498;53.650;10.090;2023-11-21T05:53:47;6.17;;;2.27;;
78224;SDS011;67498;53.650;10.090;2023-11-21T05:56:12;12.00;;;3.27;;
78224;SDS011;67498;53.650;10.090;2023-11-21T05:58:38;7.85;;;2.58;;
78224;SDS011;67498;53.650;10.090;2023-11-21T06:01:07;6.80;;;2.15;;
78224;SDS011;67498;53.650;10.090;2023-11-21T06:03:34;8.85;;;3.13;;
78224;SDS011;67498;53.650;10.090;2023-11-21T06:06:03;7.45;;;2.95;;
78224;SDS011;67498;53.650;10.090;2023-11-21T06:08:29;5.73;;;2.40;;
78224;SDS011;67498;53.650;10.090;2023-11-21T06:10:55;8.98;;;2.72;;
78224;SDS011;67498;53.650;10.090;2023-11-21T06:13:20;5.83;;;2.43;;
78224;SDS011;67498;53.650;10.090;2023-11-21T06:15:49;8.30;;;3.08;;
78224;SDS011;67498;53.650;10.090;2023-11-21T06:18:15;8.70;;;3.17;;
78224;SDS011;67498;53.650;10.090;2023-11-21T06:20:44;9.13;;;3.00;;
78224;SDS011;67498;53.650;10.090;2023-11-21T06:23:10;6.50;;;1.87;;
78224;SDS011;67498;53.650;10.090;2023-11-21T06:25:35;6.57;;;3.17;;
78224;SDS011;67498;53.650;10.090;2023-11-21T06:28:07;5.22;;;2.20;;
78224;SDS011;67498;53.650;10.090;2023-11-21T06:30:32;6.53;;;2.07;;
78224;SDS011;67498;53.650;10.090;2023-11-21T06:32:58;7.50;;;2.43;;
78224;SDS011;67498;53.650;10.090;2023-11-21T06:35:27;4.22;;;1.63;;
78224;SDS011;67498;53.650;10.090;2023-11-21T06:37:55;7.65;;;2.63;;
78224;SDS011;67498;53.650;10.090;2023-11-21T06:40:20;6.80;;;2.70;;
78224;SDS011;67498;53.650;10.090;2023-11-21T06:42:46;6.30;;;2.33;;
78224;SDS011;67498;53.650;10.090;2023-11-21T06:45:15;5.75;;;2.03;;
78224;SDS011;67498;53.650;10.090;2023-11-21T06:47:43;5.73;;;2.10;;
78224;SDS011;67498;53.650;10.090;2023-11-21T06:50:08;5.35;;;2.55;;
78224;SDS011;67498;53.650;10.090;2023-11-21T06:52:38;5.20;;;1.67;;
78224;SDS011;67498;53.650;10.090;2023-11-21T06:55:04;5.97;;;2.35;;
78224;SDS011;67498;53.650;10.090;2023-11-21T06:57:33;5.93;;;2.92;;
78224;SDS011;67498;53.650;10.090;2023-11-21T07:00:01;7.80;;;2.43;;
78224;SDS011;67498;53.650;10.090;2023-11-21T07:02:34;11.30;;;3.42;;
78224;SDS011;67498;53.650;10.090;2023-11-21T07:04:59;7.27;;;2.53;;
78224;SDS011;67498;53.650;10.090;2023-11-21T07:07:27;6.35;;;1.88;;
78224;SDS011;67498;53.650;10.090;2023-11-21T07:09:53;4.88;;;2.03;;
78224;SDS011;67498;53.650;10.090;2023-11-21T07:12:23;7.85;;;2.65;;
78224;SDS011;67498;53.650;10.090;2023-11-21T07:14:50;6.88;;;2.40;;
78224;SDS011;67498;53.650;10.090;2023-11-21T07:17:18;6.30;;;2.07;;
78224;SDS011;67498;53.650;10.090;2023-11-21T07:19:44;5.50;;;2.05;;
78224;SDS011;67498;53.650;10.090;2023-11-21T07:22:14;11.38;;;1.60;;
78224;SDS011;67498;53.650;10.090;2023-11-21T07:24:49;4.93;;;1.73;;
78224;SDS011;67498;53.650;10.090;2023-11-21T07:27:25;5.45;;;2.00;;
78224;SDS011;67498;53.650;10.090;2023-11-21T07:29:50;5.33;;;2.00;;
78224;SDS011;67498;53.650;10.090;2023-11-21T07:32:16;5.60;;;2.27;;
78224;SDS011;67498;53.650;10.090;2023-11-21T07:34:41;5.68;;;1.88;;
78224;SDS011;67498;53.650;10.090;2023-11-21T07:37:10;9.37;;;2.40;;
78224;SDS011;67498;53.650;10.090;2023-11-21T07:39:37;4.35;;;1.50;;
78224;SDS011;67498;53.650;10.090;2023-11-21T07:42:09;6.25;;;2.13;;
78224;SDS011;67498;53.650;10.090;2023-11-21T07:44:37;6.90;;;1.58;;
78224;SDS011;67498;53.650;10.090;2023-11-21T07:47:02;5.00;;;1.57;;
78224;SDS011;67498;53.650;10.090;2023-11-21T07:49:32;4.35;;;1.42;;
78224;SDS011;67498;53.650;10.090;2023-11-21T07:51:57;5.30;;;1.48;;
78224;SDS011;67498;53.650;10.090;2023-11-21T07:54:30;6.15;;;1.85;;
78224;SDS011;67498;53.650;10.090;2023-11-21T07:57:01;4.10;;;1.20;;
78224;SDS011;67498;53.650;10.090;2023-11-21T07:59:37;2.67;;;0.77;;
78224;SDS011;67498;53.650;10.090;2023-11-21T08:02:13;4.30;;;1.43;;
78224;SDS011;67498;53.650;10.090;2023-11-21T08:04:44;7.75;;;1.35;;
78224;SDS011;67498;53.650;10.090;2023-11-21T08:07:17;5.03;;;1.83;;
78224;SDS011;67498;53.650;10.090;2023-11-21T08:09:42;6.30;;;1.80;;
78224;SDS011;67498;53.650;10.090;2023-11-21T08:12:11;3.35;;;1.08;;
78224;SDS011;67498;53.650;10.090;2023-11-21T08:14:38;5.50;;;1.43;;
78224;SDS011;67498;53.650;10.090;2023-11-21T08:17:04;3.70;;;0.90;;
78224;SDS011;67498;53.650;10.090;2023-11-21T08:19:31;4.25;;;1.02;;
78224;SDS011;67498;53.650;10.090;2023-11-21T08:21:59;3.33;;;1.10;;
78224;SDS011;67498;53.650;10.090;2023-11-21T08:24:36;6.40;;;1.05;;
78224;SDS011;67498;53.650;10.090;2023-11-21T08:27:09;6.13;;;1.30;;
78224;SDS011;67498;53.650;10.090;2023-11-21T08:29:47;3.40;;;1.30;;
78224;SDS011;67498;53.650;10.090;2023-11-21T08:32:13;4.03;;;1.13;;
78224;SDS011;67498;53.650;10.090;2023-11-21T08:35:02;3.83;;;1.38;;
78224;SDS011;67498;53.650;10.090;2023-11-21T08:37:42;6.53;;;1.40;;
78224;SDS011;67498;53.650;10.090;2023-11-21T08:40:13;3.50;;;1.30;;
78224;SDS011;67498;53.650;10.090;2023-11-21T08:42:59;6.78;;;1.27;;
78224;SDS011;67498;53.650;10.090;2023-11-21T08:45:36;4.25;;;1.25;;
78224;SDS011;67498;53.650;10.090;2023-11-21T08:48:35;4.47;;;1.00;;
78224;SDS011;67498;53.650;10.090;2023-11-21T08:51:09;5.22;;;1.75;;
78224;SDS011;67498;53.650;10.090;2023-11-21T08:53:53;4.03;;;1.20;;
78224;SDS011;67498;53.650;10.090;2023-11-21T08:56:20;4.07;;;1.35;;
78224;SDS011;67498;53.650;10.090;2023-11-21T08:58:53;5.68;;;1.75;;
78224;SDS011;67498;53.650;10.090;2023-11-21T09:01:39;5.43;;;1.55;;
78224;SDS011;67498;53.650;10.090;2023-11-21T09:04:29;3.42;;;1.23;;
78224;SDS011;67498;53.650;10.090;2023-11-21T09:07:00;3.40;;;1.00;;
78224;SDS011;67498;53.650;10.090;2023-11-21T09:09:56;3.33;;;1.10;;
78224;SDS011;67498;53.650;10.090;2023-11-21T09:12:41;3.55;;;1.15;;
78224;SDS011;67498;53.650;10.090;2023-11-21T09:15:37;4.00;;;1.20;;
78224;SDS011;67498;53.650;10.090;2023-11-21T09:18:16;4.35;;;1.40;;
78224;SDS011;67498;53.650;10.090;2023-11-21T09:20:51;3.50;;;1.00;;
78224;SDS011;67498;53.650;10.090;2023-11-21T09:23:19;2.33;;;0.70;;
78224;SDS011;67498;53.650;10.090;2023-11-21T09:26:05;3.80;;;1.02;;
78224;SDS011;67498;53.650;10.090;2023-11-21T09:28:49;4.47;;;1.20;;
78224;SDS011;67498;53.650;10.090;2023-11-21T09:31:32;4.15;;;1.20;;
78224;SDS011;67498;53.650;10.090;2023-11-21T09:34:18;3.30;;;0.93;;
78224;SDS011;67498;53.650;10.090;2023-11-21T09:37:25;2.63;;;0.68;;
78224;SDS011;67498;53.650;10.090;2023-11-21T09:40:03;3.10;;;1.20;;
78224;SDS011;67498;53.650;10.090;2023-11-21T09:52:29;3.20;;;0.90;;
78224;SDS011;67498;53.650;10.090;2023-11-21T10:09:20;5.78;;;2.15;;
78224;SDS011;67498;53.650;10.090;2023-11-21T10:12:10;3.83;;;1.13;;
78224;SDS011;67498;53.650;10.090;2023-11-21T10:18:39;4.38;;;1.45;;
78224;SDS011;67498;53.650;10.090;2023-11-21T10:37:41;2.85;;;0.60;;
78224;SDS011;67498;53.650;10.090;2023-11-21T10:40:38;2.45;;;0.47;;
78224;SDS011;67498;53.650;10.090;2023-11-21T11:05:38;4.28;;;0.65;;
78224;SDS011;67498;53.650;10.090;2023-11-21T11:08:39;3.15;;;0.90;;
78224;SDS011;67498;53.650;10.090;2023-11-21T11:59:08;3.15;;;0.70;;
78224;SDS011;67498;53.650;10.090;2023-11-21T12:06:14;2.53;;;0.57;;
78224;SDS011;67498;53.650;10.090;2023-11-21T12:12:49;3.23;;;0.90;;
78224;SDS011;67498;53.650;10.090;2023-11-21T12:15:55;1.30;;;0.22;;
78224;SDS011;67498;53.650;10.090;2023-11-21T12:19:04;4.35;;;1.27;;
78224;SDS011;67498;53.650;10.090;2023-11-21T12:21:41;2.45;;;0.50;;
78224;SDS011;67498;53.650;10.090;2023-11-21T12:31:17;2.35;;;0.60;;
78224;SDS011;67498;53.650;10.090;2023-11-21T12:43:19;1.80;;;0.50;;
78224;SDS011;67498;53.650;10.090;2023-11-21T12:49:08;3.60;;;0.68;;
78224;SDS011;67498;53.650;10.090;2023-11-21T12:51:47;4.85;;;1.00;;
78224;SDS011;67498;53.650;10.090;2023-11-21T12:54:18;1.85;;;0.50;;
78224;SDS011;67498;53.650;10.090;2023-11-21T12:57:04;2.70;;;0.77;;
78224;SDS011;67498;53.650;10.090;2023-11-21T12:59:47;2.00;;;0.57;;
78224;SDS011;67498;53.650;10.090;2023-11-21T13:02:44;2.40;;;0.55;;
78224;SDS011;67498;53.650;10.090;2023-11-21T13:08:46;5.97;;;0.50;;
78224;SDS011;67498;53.650;10.090;2023-11-21T13:11:39;3.90;;;0.80;;
78224;SDS011;67498;53.650;10.090;2023-11-21T13:14:28;2.15;;;0.60;;
78224;SDS011;67498;53.650;10.090;2023-11-21T13:20:00;3.63;;;0.98;;
78224;SDS011;67498;53.650;10.090;2023-11-21T13:23:06;4.28;;;0.70;;
78224;SDS011;67498;53.650;10.090;2023-11-21T13:25:52;3.33;;;0.83;;
78224;SDS011;67498;53.650;10.090;2023-11-21T13:31:26;2.95;;;0.52;;
78224;SDS011;67498;53.650;10.090;2023-11-21T13:34:05;2.30;;;0.63;;
78224;SDS011;67498;53.650;10.090;2023-11-21T13:37:13;4.18;;;0.70;;
78224;SDS011;67498;53.650;10.090;2023-11-21T13:39:53;4.53;;;1.07;;
78224;SDS011;67498;53.650;10.090;2023-11-21T13:42:48;3.67;;;0.93;;
78224;SDS011;67498;53.650;10.090;2023-11-21T13:45:24;2.70;;;0.80;;
78224;SDS011;67498;53.650;10.090;2023-11-21T13:48:01;2.88;;;0.63;;
78224;SDS011;67498;53.650;10.090;2023-11-21T13:50:42;2.00;;;0.50;;
78224;SDS011;67498;53.650;10.090;2023-11-21T13:53:38;4.00;;;0.80;;
78224;SDS011;67498;53.650;10.090;2023-11-21T13:59:22;2.08;;;0.57;;
78224;SDS011;67498;53.650;10.090;2023-11-21T14:02:02;2.22;;;0.52;;
78224;SDS011;67498;53.650;10.090;2023-11-21T14:04:53;4.90;;;0.70;;
78224;SDS011;67498;53.650;10.090;2023-11-21T14:07:38;4.60;;;0.77;;
78224;SDS011;67498;53.650;10.090;2023-11-21T14:10:19;2.88;;;0.65;;
78224;SDS011;67498;53.650;10.090;2023-11-21T14:13:06;2.15;;;0.63;;
78224;SDS011;67498;53.650;10.090;2023-11-21T14:15:40;3.30;;;0.80;;
78224;SDS011;67498;53.650;10.090;2023-11-21T14:18:12;8.80;;;0.80;;
78224;SDS011;67498;53.650;10.090;2023-11-21T14:20:48;2.97;;;0.67;;
78224;SDS011;67498;53.650;10.090;2023-11-21T14:23:23;2.72;;;0.55;;
78224;SDS011;67498;53.650;10.090;2023-11-21T14:26:13;2.28;;;0.50;;
78224;SDS011;67498;53.650;10.090;2023-11-21T14:28:40;1.80;;;0.43;;
78224;SDS011;67498;53.650;10.090;2023-11-21T14:31:14;2.42;;;0.40;;
78224;SDS011;67498;53.650;10.090;2023-11-21T14:33:45;3.97;;;0.40;;
78224;SDS011;67498;53.650;10.090;2023-11-21T14:36:17;1.73;;;0.47;;
78224;SDS011;67498;53.650;10.090;2023-11-21T14:38:49;3.00;;;0.73;;
78224;SDS011;67498;53.650;10.090;2023-11-21T14:41:21;2.50;;;0.70;;
78224;SDS011;67498;53.650;10.090;2023-11-21T14:43:47;2.40;;;0.52;;
78224;SDS011;67498;53.650;10.090;2023-11-21T14:46:14;1.40;;;0.37;;
78224;SDS011;67498;53.650;10.090;2023-11-21T14:48:55;9.65;;;0.40;;
78224;SDS011;67498;53.650;10.090;2023-11-21T14:51:44;2.40;;;0.73;;
78224;SDS011;67498;53.650;10.090;2023-11-21T14:54:42;1.40;;;0.30;;
78224;SDS011;67498;53.650;10.090;2023-11-21T14:57:11;2.50;;;0.57;;
78224;SDS011;67498;53.650;10.090;2023-11-21T14:59:45;1.63;;;0.40;;
78224;SDS011;67498;53.650;10.090;2023-11-21T15:02:28;1.60;;;0.38;;
78224;SDS011;67498;53.650;10.090;2023-11-21T15:05:20;2.50;;;0.70;;
78224;SDS011;67498;53.650;10.090;2023-11-21T15:07:51;2.42;;;0.50;;
78224;SDS011;67498;53.650;10.090;2023-11-21T15:10:28;1.75;;;0.30;;
78224;SDS011;67498;53.650;10.090;2023-11-21T15:12:56;2.27;;;0.67;;
78224;SDS011;67498;53.650;10.090;2023-11-21T15:19:09;2.83;;;0.55;;
78224;SDS011;67498;53.650;10.090;2023-11-21T15:21:40;1.30;;;0.30;;
78224;SDS011;67498;53.650;10.090;2023-11-21T15:24:15;2.47;;;0.40;;
78224;SDS011;67498;53.650;10.090;2023-11-21T15:26:41;4.50;;;0.90;;
78224;SDS011;67498;53.650;10.090;2023-11-21T15:29:22;2.33;;;0.65;;
78224;SDS011;67498;53.650;10.090;2023-11-21T15:31:51;1.25;;;0.35;;
78224;SDS011;67498;53.650;10.090;2023-11-21T15:34:21;4.35;;;0.55;;
78224;SDS011;67498;53.650;10.090;2023-11-21T15:36:55;1.88;;;0.40;;
78224;SDS011;67498;53.650;10.090;2023-11-21T15:39:33;1.57;;;0.30;;
78224;SDS011;67498;53.650;10.090;2023-11-21T15:42:01;2.03;;;0.30;;
78224;SDS011;67498;53.650;10.090;2023-11-21T15:44:32;2.35;;;0.57;;
78224;SDS011;67498;53.650;10.090;2023-11-21T15:47:02;1.88;;;0.75;;
78224;SDS011;67498;53.650;10.090;2023-11-21T15:49:33;2.25;;;0.75;;
78224;SDS011;67498;53.650;10.090;2023-11-21T15:52:05;3.13;;;1.00;;
78224;SDS011;67498;53.650;10.090;2023-11-21T15:54:31;1.20;;;0.32;;
78224;SDS011;67498;53.650;10.090;2023-11-21T15:56:59;2.47;;;0.75;;
78224;SDS011;67498;53.650;10.090;2023-11-21T15:59:31;3.17;;;0.45;;
78224;SDS011;67498;53.650;10.090;2023-11-21T16:02:01;2.58;;;0.60;;
78224;SDS011;67498;53.650;10.090;2023-11-21T16:04:32;6.03;;;1.20;;
78224;SDS011;67498;53.650;10.090;2023-11-21T16:07:05;2.50;;;0.77;;
78224;SDS011;67498;53.650;10.090;2023-11-21T16:09:37;2.72;;;0.73;;
78224;SDS011;67498;53.650;10.090;2023-11-21T16:12:16;2.95;;;0.90;;
78224;SDS011;67498;53.650;10.090;2023-11-21T16:14:50;4.38;;;0.93;;
78224;SDS011;67498;53.650;10.090;2023-11-21T16:17:27;6.83;;;0.83;;
78224;SDS011;67498;53.650;10.090;2023-11-21T16:19:57;2.10;;;0.50;;
78224;SDS011;67498;53.650;10.090;2023-11-21T16:22:28;2.88;;;0.98;;
78224;SDS011;67498;53.650;10.090;2023-11-21T16:25:10;2.13;;;0.60;;
78224;SDS011;67498;53.650;10.090;2023-11-21T16:27:41;3.07;;;0.70;;
78224;SDS011;67498;53.650;10.090;2023-11-21T16:30:10;2.47;;;0.65;;
78224;SDS011;67498;53.650;10.090;2023-11-21T16:32:43;1.90;;;0.30;;
78224;SDS011;67498;53.650;10.090;2023-11-21T16:35:08;4.77;;;0.90;;
78224;SDS011;67498;53.650;10.090;2023-11-21T16:37:38;3.65;;;0.60;;
78224;SDS011;67498;53.650;10.090;2023-11-21T16:40:04;2.97;;;1.10;;
78224;SDS011;67498;53.650;10.090;2023-11-21T16:42:49;2.88;;;0.70;;
78224;SDS011;67498;53.650;10.090;2023-11-21T16:45:27;3.45;;;0.68;;
78224;SDS011;67498;53.650;10.090;2023-11-21T16:48:14;4.63;;;0.80;;
78224;SDS011;67498;53.650;10.090;2023-11-21T16:51:22;2.72;;;0.82;;
78224;SDS011;67498;53.650;10.090;2023-11-21T16:53:53;3.03;;;0.73;;
78224;SDS011;67498;53.650;10.090;2023-11-21T16:56:51;4.25;;;1.48;;
78224;SDS011;67498;53.650;10.090;2023-11-21T16:59:30;5.18;;;1.10;;
78224;SDS011;67498;53.650;10.090;2023-11-21T17:02:25;3.03;;;0.90;;
78224;SDS011;67498;53.650;10.090;2023-11-21T17:05:19;2.63;;;0.73;;
78224;SDS011;67498;53.650;10.090;2023-11-21T17:07:56;3.58;;;1.05;;
78224;SDS011;67498;53.650;10.090;2023-11-21T17:10:22;2.67;;;0.63;;
78224;SDS011;67498;53.650;10.090;2023-11-21T17:12:50;2.33;;;0.57;;
78224;SDS011;67498;53.650;10.090;2023-11-21T17:15:16;2.00;;;0.22;;
78224;SDS011;67498;53.650;10.090;2023-11-21T17:17:43;2.97;;;0.63;;
78224;SDS011;67498;53.650;10.090;2023-11-21T17:20:09;1.80;;;0.50;;
78224;SDS011;67498;53.650;10.090;2023-11-21T17:22:38;1.30;;;0.27;;
78224;SDS011;67498;53.650;10.090;2023-11-21T17:25:09;1.58;;;0.32;;
78224;SDS011;67498;53.650;10.090;2023-11-21T17:27:38;1.70;;;0.30;;
78224;SDS011;67498;53.650;10.090;2023-11-21T17:30:04;3.53;;;0.85;;
78224;SDS011;67498;53.650;10.090;2023-11-21T17:32:31;1.97;;;0.27;;
78224;SDS011;67498;53.650;10.090;2023-11-21T17:35:00;2.15;;;0.60;;
78224;SDS011;67498;53.650;10.090;2023-11-21T17:37:26;5.85;;;0.68;;
78224;SDS011;67498;53.650;10.090;2023-11-21T17:39:54;2.08;;;0.55;;
78224;SDS011;67498;53.650;10.090;2023-11-21T17:42:23;1.13;;;0.20;;
78224;SDS011;67498;53.650;10.090;2023-11-21T17:44:49;1.50;;;0.50;;
78224;SDS011;67498;53.650;10.090;2023-11-21T17:47:15;1.98;;;0.60;;
78224;SDS011;67498;53.650;10.090;2023-11-21T17:49:44;1.83;;;0.47;;
78224;SDS011;67498;53.650;10.090;2023-11-21T17:52:09;1.98;;;0.50;;
78224;SDS011;67498;53.650;10.090;2023-11-21T17:54:36;1.37;;;0.33;;
78224;SDS011;67498;53.650;10.090;2023-11-21T17:57:22;1.88;;;0.50;;
78224;SDS011;67498;53.650;10.090;2023-11-21T17:59:57;3.03;;;1.05;;
78224;SDS011;67498;53.650;10.090;2023-11-21T18:02:33;18.15;;;6.97;;
78224;SDS011;67498;53.650;10.090;2023-11-21T18:05:15;2.63;;;0.82;;
78224;SDS011;67498;53.650;10.090;2023-11-21T18:08:00;1.60;;;0.40;;
78224;SDS011;67498;53.650;10.090;2023-11-21T18:10:35;3.13;;;0.43;;
78224;SDS011;67498;53.650;10.090;2023-11-21T18:13:06;2.35;;;0.68;;
78224;SDS011;67498;53.650;10.090;2023-11-21T18:15:51;6.03;;;0.40;;
78224;SDS011;67498;53.650;10.090;2023-11-21T18:18:20;1.23;;;0.30;;
78224;SDS011;67498;53.650;10.090;2023-11-21T18:21:11;1.70;;;0.53;;
78224;SDS011;67498;53.650;10.090;2023-11-21T18:23:47;1.52;;;0.40;;
78224;SDS011;67498;53.650;10.090;2023-11-21T18:26:18;1.42;;;0.22;;
78224;SDS011;67498;53.650;10.090;2023-11-21T18:28:45;2.03;;;0.40;;
78224;SDS011;67498;53.650;10.090;2023-11-21T18:31:18;2.80;;;0.93;;
78224;SDS011;67498;53.650;10.090;2023-11-21T18:33:53;2.07;;;0.60;;
78224;SDS011;67498;53.650;10.090;2023-11-21T18:36:44;2.53;;;0.68;;
78224;SDS011;67498;53.650;10.090;2023-11-21T18:39:19;1.83;;;0.32;;
78224;SDS011;67498;53.650;10.090;2023-11-21T18:41:51;1.73;;;0.30;;
78224;SDS011;67498;53.650;10.090;2023-11-21T18:44:49;1.85;;;0.70;;
78224;SDS011;67498;53.650;10.090;2023-11-21T18:47:40;2.13;;;0.60;;
78224;SDS011;67498;53.650;10.090;2023-11-21T18:50:12;1.20;;;0.20;;
78224;SDS011;67498;53.650;10.090;2023-11-21T18:52:42;2.13;;;0.38;;
78224;SDS011;67498;53.650;10.090;2023-11-21T18:55:10;3.08;;;0.73;;
78224;SDS011;67498;53.650;10.090;2023-11-21T18:57:40;3.53;;;0.85;;
78224;SDS011;67498;53.650;10.090;2023-11-21T19:00:10;4.37;;;0.80;;
78224;SDS011;67498;53.650;10.090;2023-11-21T19:02:45;2.13;;;0.82;;
78224;SDS011;67498;53.650;10.090;2023-11-21T19:05:29;4.43;;;0.47;;
78224;SDS011;67498;53.650;10.090;2023-11-21T19:08:11;3.40;;;0.80;;
78224;SDS011;67498;53.650;10.090;2023-11-21T19:11:26;3.40;;;0.65;;
78224;SDS011;67498;53.650;10.090;2023-11-21T19:14:02;2.93;;;0.53;;
78224;SDS011;67498;53.650;10.090;2023-11-21T19:16:58;2.08;;;0.30;;
78224;SDS011;67498;53.650;10.090;2023-11-21T19:20:12;1.65;;;0.40;;
78224;SDS011;67498;53.650;10.090;2023-11-21T19:22:49;3.08;;;0.90;;
78224;SDS011;67498;53.650;10.090;2023-11-21T19:25:39;2.10;;;0.47;;
78224;SDS011;67498;53.650;10.090;2023-11-21T19:30:53;2.88;;;0.70;;
78224;SDS011;67498;53.650;10.090;2023-11-21T19:36:07;3.00;;;0.88;;
78224;SDS011;67498;53.650;10.090;2023-11-21T19:38:46;1.42;;;0.22;;
78224;SDS011;67498;53.650;10.090;2023-11-21T19:41:24;4.10;;;1.07;;
78224;SDS011;67498;53.650;10.090;2023-11-21T19:44:09;2.03;;;0.50;;